Time;durP1;ratioP1;P1;durP2;ratioP2;P2;SDS_P1;SDS_P2;PMS_P1;PMS_P2;Temp;Humidity;BMP_temperature;BMP_pressure;BME280_temperature;BME280_humidity;BME280_pressure;Samples;Min_cycle;Max_cycle;Signal;HPM_P1;HPM_P2
2023/06/25 00:00:14;;;;;;;5.60;4.63;;;;;;;20.72;52.24;99719.66;4967223;28;20490;-76
2023/06/25 00:02:46;;;;;;;5.23;3.97;;;;;;;20.69;52.37;99725.31;4966628;28;20285;-75
2023/06/25 00:05:12;;;;;;;4.88;4.20;;;;;;;20.68;52.28;99720.13;4958886;28;20886;-75
2023/06/25 00:07:39;;;;;;;7.40;5.00;;;;;;;20.65;52.39;99723.94;4959243;28;20594;-75
2023/06/25 00:10:04;;;;;;;4.60;4.20;;;;;;;20.64;52.70;99718.78;4962978;28;20219;-77
2023/06/25 00:12:30;;;;;;;6.90;5.13;;;;;;;20.60;52.69;99717.41;4962002;28;20470;-79
2023/06/25 00:14:57;;;;;;;4.93;3.73;;;;;;;20.47;53.18;99721.34;4962040;28;20683;-75
2023/06/25 00:17:27;;;;;;;4.90;4.40;;;;;;;20.35;53.68;99719.91;4963673;28;20213;-75
2023/06/25 00:19:54;;;;;;;4.97;4.47;;;;;;;20.24;53.99;99720.19;4959616;28;20910;-75
2023/06/25 00:22:19;;;;;;;4.40;4.00;;;;;;;20.15;54.23;99716.63;4962172;28;20443;-77
2023/06/25 00:24:44;;;;;;;5.57;5.00;;;;;;;20.08;54.64;99715.59;4961057;28;20561;-78
2023/06/25 00:27:10;;;;;;;6.00;3.80;;;;;;;19.98;54.63;99710.38;4962771;28;20227;-76
2023/06/25 00:29:35;;;;;;;4.90;4.33;;;;;;;19.95;54.89;99705.31;4959634;28;20217;-75
2023/06/25 00:32:01;;;;;;;5.10;4.40;;;;;;;19.91;55.11;99706.63;4960128;28;20221;-76
2023/06/25 00:34:26;;;;;;;5.40;4.63;;;;;;;19.90;55.23;99702.28;4959864;28;20230;-76
2023/06/25 00:36:52;;;;;;;5.70;5.17;;;;;;;19.80;55.27;99704.22;4959412;28;20745;-75
2023/06/25 00:39:21;;;;;;;6.03;5.00;;;;;;;19.70;55.43;99706.97;4958469;28;20213;-77
2023/06/25 00:41:47;;;;;;;6.67;5.27;;;;;;;19.60;55.78;99700.84;4943089;28;20214;-77
2023/06/25 00:44:13;;;;;;;5.90;4.40;;;;;;;19.54;56.04;99699.63;4960171;28;20544;-76
2023/06/25 00:46:39;;;;;;;4.37;3.97;;;;;;;19.45;56.07;99700.56;4961120;28;20489;-75
2023/06/25 00:49:07;;;;;;;4.83;3.60;;;;;;;19.40;56.25;99702.84;4940231;28;20277;-76
2023/06/25 00:51:35;;;;;;;5.17;4.67;;;;;;;19.37;56.50;99700.47;4959330;28;20860;-75
2023/06/25 00:54:06;;;;;;;8.37;4.33;;;;;;;19.32;56.79;99705.44;4959721;28;20470;-75
2023/06/25 00:56:32;;;;;;;5.43;4.37;;;;;;;19.29;56.86;99697.75;4961158;28;20837;-76
2023/06/25 00:59:01;;;;;;;6.53;4.83;;;;;;;19.27;56.70;99691.72;4962476;28;20556;-76
2023/06/25 01:01:58;;;;;;;5.27;4.77;;;;;;;19.28;56.93;99702.25;4941389;28;20464;-76
2023/06/25 01:04:35;;;;;;;4.30;3.90;;;;;;;19.33;56.63;99694.59;4981691;23;20814;-77
2023/06/25 01:07:04;;;;;;;4.37;3.97;;;;;;;19.35;56.77;99692.63;4926643;29;20856;-77
2023/06/25 01:09:31;;;;;;;6.40;5.27;;;;;;;19.40;56.37;99690.34;4912325;29;20444;-77
2023/06/25 01:12:04;;;;;;;9.63;4.93;;;;;;;19.42;56.49;99687.56;4938827;29;20453;-77
2023/06/25 01:14:33;;;;;;;5.90;4.80;;;;;;;19.38;56.83;99686.16;4921678;28;20856;-76
2023/06/25 01:16:59;;;;;;;5.63;4.97;;;;;;;19.35;56.85;99681.16;4935630;28;20448;-76
2023/06/25 01:19:29;;;;;;;5.50;4.93;;;;;;;19.29;56.90;99681.75;4955387;28;20475;-76
2023/06/25 01:21:59;;;;;;;4.63;4.20;;;;;;;19.24;57.20;99672.38;4955101;28;20682;-77
2023/06/25 01:24:28;;;;;;;5.63;5.00;;;;;;;19.20;57.15;99671.03;4955022;28;21001;-77
2023/06/25 01:26:59;;;;;;;8.23;6.13;;;;;;;19.15;57.26;99667.97;4957047;28;20484;-76
2023/06/25 01:29:27;;;;;;;5.70;5.20;;;;;;;19.08;57.44;99674.88;4938843;28;20468;-77
2023/06/25 01:31:53;;;;;;;5.00;4.37;;;;;;;19.00;57.44;99675.63;4955717;28;20449;-77
2023/06/25 01:34:22;;;;;;;7.60;5.10;;;;;;;18.96;57.96;99679.59;4956378;28;20234;-76
2023/06/25 01:36:52;;;;;;;6.45;5.75;;;;;;;18.90;57.94;99677.53;4952697;28;20431;-77
2023/06/25 01:39:21;;;;;;;5.40;4.67;;;;;;;18.80;58.12;99687.41;4948831;28;20622;-76
2023/06/25 01:41:47;;;;;;;5.43;4.87;;;;;;;18.73;58.25;99671.13;4937457;28;20477;-77
2023/06/25 01:44:16;;;;;;;6.03;5.43;;;;;;;18.72;58.33;99677.47;4955016;28;20466;-76
2023/06/25 01:46:42;;;;;;;4.90;4.00;;;;;;;18.75;57.99;99669.22;4953447;28;20234;-77
2023/06/25 01:49:07;;;;;;;5.33;4.83;;;;;;;18.76;58.00;99665.56;4930772;28;20468;-77
2023/06/25 01:51:33;;;;;;;6.73;5.10;;;;;;;18.76;57.94;99678.84;4956473;28;20474;-77
2023/06/25 01:53:59;;;;;;;5.20;4.70;;;;;;;18.76;57.76;99678.84;4957510;28;20649;-77
2023/06/25 01:56:24;;;;;;;6.33;5.27;;;;;;;18.74;57.86;99675.53;4954721;28;20338;-76
2023/06/25 01:58:53;;;;;;;6.30;5.07;;;;;;;18.70;58.11;99674.09;4938864;28;20440;-77
2023/06/25 02:01:22;;;;;;;5.00;4.60;;;;;;;18.70;57.85;99671.44;4937505;28;20297;-77
2023/06/25 02:03:48;;;;;;;5.60;4.87;;;;;;;18.75;57.87;99660.41;4953608;28;21330;-76
2023/06/25 02:06:14;;;;;;;5.70;5.10;;;;;;;18.78;57.63;99658.25;4956741;28;20536;-76
2023/06/25 02:08:40;;;;;;;7.10;5.20;;;;;;;18.82;57.54;99657.97;4942614;28;20642;-77
2023/06/25 02:11:06;;;;;;;5.00;4.50;;;;;;;18.78;57.37;99660.09;4942054;28;20621;-76
2023/06/25 02:13:36;;;;;;;5.20;4.00;;;;;;;18.76;57.43;99654.06;4958162;28;20480;-77
2023/06/25 02:16:02;;;;;;;5.20;4.73;;;;;;;18.76;56.99;99654.91;4958779;28;20491;-77
2023/06/25 02:18:28;;;;;;;5.43;4.87;;;;;;;18.74;57.32;99656.91;4961035;28;20223;-77
2023/06/25 02:20:54;;;;;;;5.47;4.97;;;;;;;18.71;57.20;99651.84;4944240;28;20220;-77
2023/06/25 02:23:20;;;;;;;7.03;5.80;;;;;;;18.72;56.94;99650.84;4956986;28;20488;-77
2023/06/25 02:25:46;;;;;;;5.33;4.70;;;;;;;18.74;56.74;99640.94;4957533;28;21050;-76
2023/06/25 02:28:12;;;;;;;8.27;5.33;;;;;;;18.77;56.54;99653.94;4957577;28;20305;-76
2023/06/25 02:30:38;;;;;;;5.53;4.97;;;;;;;18.78;56.33;99636.97;4956122;28;20242;-77
2023/06/25 02:33:03;;;;;;;5.93;4.47;;;;;;;18.76;56.43;99652.25;4930210;28;20448;-77
2023/06/25 02:35:28;;;;;;;5.77;4.73;;;;;;;18.68;56.81;99659.28;4929848;28;20302;-77
2023/06/25 02:37:54;;;;;;;5.17;4.60;;;;;;;18.60;56.94;99654.69;4958279;28;20211;-76
2023/06/25 02:40:21;;;;;;;6.87;4.93;;;;;;;18.50;57.43;99648.59;4948769;28;20610;-76
2023/06/25 02:42:46;;;;;;;6.23;5.43;;;;;;;18.38;57.68;99666.56;4958717;28;20294;-77
2023/06/25 02:45:12;;;;;;;6.63;5.33;;;;;;;18.32;57.97;99651.19;4937509;28;20508;-77
2023/06/25 02:47:37;;;;;;;4.60;4.20;;;;;;;18.19;58.27;99651.50;4941717;28;20253;-77
2023/06/25 02:50:03;;;;;;;8.93;5.50;;;;;;;18.08;58.84;99651.69;4945791;28;20324;-77
2023/06/25 02:52:30;;;;;;;5.93;5.30;;;;;;;18.05;58.95;99657.31;4938821;28;20212;-76
2023/06/25 02:54:55;;;;;;;5.07;4.57;;;;;;;18.08;58.56;99657.00;4958300;28;21030;-76
2023/06/25 02:57:23;;;;;;;6.87;5.00;;;;;;;18.09;58.84;99661.31;4960593;28;20216;-77
2023/06/25 02:59:49;;;;;;;5.10;4.60;;;;;;;18.14;58.64;99664.41;4939399;28;20390;-76
2023/06/25 03:02:14;;;;;;;7.20;5.27;;;;;;;18.16;58.44;99659.78;4941112;28;20507;-76
2023/06/25 03:04:40;;;;;;;5.63;4.97;;;;;;;18.18;58.34;99663.13;4930296;28;21117;-77
2023/06/25 03:07:06;;;;;;;7.67;6.03;;;;;;;18.20;58.29;99660.31;4940907;28;20227;-76
2023/06/25 03:09:31;;;;;;;6.90;4.47;;;;;;;18.23;58.49;99663.53;4944518;28;20212;-76
2023/06/25 03:11:57;;;;;;;5.93;4.17;;;;;;;18.24;58.39;99665.22;4942065;28;21135;-77
2023/06/25 03:14:24;;;;;;;5.40;4.90;;;;;;;18.24;58.39;99665.22;4940794;28;20868;-77
2023/06/25 03:16:49;;;;;;;5.70;5.20;;;;;;;18.22;58.38;99661.84;4942434;28;20451;-77
2023/06/25 03:19:14;;;;;;;5.70;5.00;;;;;;;18.23;58.34;99665.38;4956607;28;20222;-77
2023/06/25 03:21:40;;;;;;;5.10;4.63;;;;;;;18.21;58.55;99662.00;4935018;28;20221;-77
2023/06/25 03:24:05;;;;;;;5.07;4.53;;;;;;;18.17;58.47;99657.94;4940678;28;20210;-77
2023/06/25 03:26:31;;;;;;;4.80;4.33;;;;;;;18.13;58.80;99662.72;4940790;28;20279;-77
2023/06/25 03:28:58;;;;;;;5.20;4.47;;;;;;;18.09;58.74;99667.50;4957371;28;20209;-77
2023/06/25 03:31:24;;;;;;;6.57;4.43;;;;;;;18.01;59.15;99655.91;4957703;28;20217;-77
2023/06/25 03:33:52;;;;;;;6.33;4.20;;;;;;;17.97;58.99;99654.53;4941808;28;20544;-77
2023/06/25 03:36:18;;;;;;;6.53;5.90;;;;;;;17.97;59.40;99655.34;4953713;28;20463;-77
2023/06/25 03:38:44;;;;;;;6.27;5.67;;;;;;;17.90;59.58;99652.44;4937965;28;20474;-77
2023/06/25 03:41:09;;;;;;;6.07;5.47;;;;;;;17.91;59.46;99643.47;4940972;28;20264;-77
2023/06/25 03:43:35;;;;;;;6.80;4.70;;;;;;;17.94;59.36;99644.19;4933311;28;20236;-77
2023/06/25 03:46:01;;;;;;;7.90;6.70;;;;;;;17.95;59.47;99651.16;4946246;28;20220;-77
2023/06/25 03:48:26;;;;;;;6.27;5.27;;;;;;;17.94;59.46;99639.69;4955047;28;21004;-77
2023/06/25 03:50:52;;;;;;;7.70;6.20;;;;;;;17.92;59.37;99644.31;4940782;28;20575;-76
2023/06/25 03:53:17;;;;;;;5.20;4.70;;;;;;;17.87;59.76;99635.94;4957338;28;20223;-77
2023/06/25 03:55:43;;;;;;;9.30;5.90;;;;;;;17.83;59.80;99640.72;4935570;28;20242;-77
2023/06/25 03:58:09;;;;;;;7.00;6.30;;;;;;;17.86;59.80;99640.41;4934838;28;20841;-77
2023/06/25 04:00:34;;;;;;;6.00;5.40;;;;;;;17.93;59.60;99648.66;4938329;28;20209;-77
2023/06/25 04:03:00;;;;;;;8.10;5.30;;;;;;;17.87;59.58;99651.88;4941148;28;20261;-77
2023/06/25 04:05:25;;;;;;;5.23;4.73;;;;;;;17.77;59.79;99649.22;4941568;28;20376;-77
2023/06/25 04:07:52;;;;;;;10.90;4.80;;;;;;;17.73;60.11;99639.84;4957233;28;20592;-77
2023/06/25 04:10:17;;;;;;;5.77;5.20;;;;;;;17.67;60.38;99645.75;4956209;28;20473;-77
2023/06/25 04:12:43;;;;;;;6.70;5.40;;;;;;;17.65;60.05;99634.41;4937876;28;20584;-77
2023/06/25 04:15:09;;;;;;;5.10;4.63;;;;;;;17.70;60.28;99640.13;4939803;28;20576;-77
2023/06/25 04:17:39;;;;;;;5.87;4.53;;;;;;;17.76;60.14;99636.06;4940048;28;20644;-77
2023/06/25 04:20:06;;;;;;;6.80;5.10;;;;;;;17.81;59.87;99637.34;4939314;28;20842;-76
2023/06/25 04:22:32;;;;;;;5.60;5.10;;;;;;;17.86;59.76;99635.09;4957174;28;20459;-77
2023/06/25 04:24:57;;;;;;;5.03;4.60;;;;;;;17.92;59.72;99639.00;4956633;28;20531;-76
2023/06/25 04:27:22;;;;;;;6.57;5.23;;;;;;;17.97;60.05;99647.38;4938093;28;20238;-76
2023/06/25 04:29:48;;;;;;;5.00;4.43;;;;;;;17.90;60.25;99638.31;4938641;28;20216;-77
2023/06/25 04:32:13;;;;;;;7.23;4.60;;;;;;;17.83;60.27;99640.72;4939119;28;20494;-76
2023/06/25 04:34:39;;;;;;;5.97;5.30;;;;;;;17.77;60.55;99643.91;4939495;28;20217;-76
2023/06/25 04:37:04;;;;;;;6.43;4.90;;;;;;;17.74;60.35;99644.19;4941788;28;20237;-76
2023/06/25 04:39:33;;;;;;;9.97;4.70;;;;;;;17.76;60.43;99644.03;4938800;28;20661;-76
2023/06/25 04:42:00;;;;;;;6.53;4.73;;;;;;;17.85;60.29;99644.06;4925933;28;20452;-77
2023/06/25 04:44:26;;;;;;;7.13;5.50;;;;;;;17.98;60.05;99640.25;4935515;28;20848;-77
2023/06/25 04:46:52;;;;;;;8.70;5.27;;;;;;;18.16;59.63;99646.50;4943278;28;20214;-76
2023/06/25 04:49:17;;;;;;;9.30;4.60;;;;;;;18.48;58.73;99639.94;4940779;28;20777;-76
2023/06/25 04:51:46;;;;;;;6.03;5.43;;;;;;;19.00;57.91;99633.03;4937797;28;20732;-76
2023/06/25 04:54:12;;;;;;;6.77;5.00;;;;;;;19.57;56.42;99638.03;4958516;28;20206;-77
2023/06/25 04:56:38;;;;;;;5.70;4.90;;;;;;;20.25;54.97;99647.16;4956220;28;20516;-76
2023/06/25 04:59:03;;;;;;;4.83;4.33;;;;;;;20.94;53.34;99638.13;4954774;28;20478;-76
2023/06/25 05:01:29;;;;;;;5.20;4.70;;;;;;;21.60;51.55;99635.53;4956493;28;20300;-77
2023/06/25 05:03:54;;;;;;;7.73;5.63;;;;;;;22.27;50.09;99625.38;4956566;28;20213;-76
2023/06/25 05:06:20;;;;;;;5.00;4.50;;;;;;;22.92;48.96;99626.09;4945390;28;20289;-76
2023/06/25 05:08:45;;;;;;;6.00;5.37;;;;;;;23.34;47.71;99622.97;4953159;28;20634;-76
2023/06/25 05:11:11;;;;;;;4.83;4.10;;;;;;;23.72;46.97;99631.06;4959059;28;20218;-76
2023/06/25 05:13:36;;;;;;;5.87;4.67;;;;;;;24.10;46.01;99631.00;4955400;28;20220;-76
2023/06/25 05:16:02;;;;;;;5.70;5.10;;;;;;;24.48;45.21;99636.31;4951310;28;20213;-78
2023/06/25 05:18:28;;;;;;;5.27;4.77;;;;;;;24.85;44.33;99632.63;4954777;28;20660;-76
2023/06/25 05:20:54;;;;;;;5.53;4.70;;;;;;;25.24;43.64;99627.88;4957312;28;20447;-76
2023/06/25 05:23:19;;;;;;;7.70;5.97;;;;;;;25.67;42.36;99620.59;4956561;28;20210;-76
2023/06/25 05:25:44;;;;;;;9.83;5.80;;;;;;;25.94;41.40;99618.13;4954745;28;20220;-76
2023/06/25 05:28:10;;;;;;;5.10;4.60;;;;;;;26.14;41.15;99619.09;4957124;28;20220;-76
2023/06/25 05:30:36;;;;;;;5.77;5.17;;;;;;;26.31;40.78;99618.75;4953714;28;20237;-76
2023/06/25 05:33:02;;;;;;;5.77;5.17;;;;;;;26.51;40.54;99608.94;4954800;28;20539;-76
2023/06/25 05:35:28;;;;;;;6.53;5.47;;;;;;;26.74;39.41;99613.19;4956070;28;20473;-76
2023/06/25 05:37:55;;;;;;;5.33;4.50;;;;;;;26.80;39.50;99606.97;4955108;28;20982;-77
2023/06/25 05:40:20;;;;;;;4.93;4.43;;;;;;;26.99;39.22;99608.03;4950523;28;20471;-76
2023/06/25 05:42:46;;;;;;;4.87;4.47;;;;;;;27.13;38.68;99610.53;4957406;28;20467;-77
2023/06/25 05:45:11;;;;;;;5.70;4.93;;;;;;;27.29;38.66;99605.84;4957191;28;20263;-77
2023/06/25 05:47:37;;;;;;;6.20;5.60;;;;;;;27.51;38.10;99609.16;4960973;28;20204;-77
2023/06/25 05:50:03;;;;;;;6.27;5.67;;;;;;;27.74;37.58;99608.75;4960271;28;20199;-76
2023/06/25 05:52:29;;;;;;;5.40;4.67;;;;;;;28.08;36.87;99612.22;4960026;28;20581;-77
2023/06/25 05:54:54;;;;;;;8.67;5.40;;;;;;;28.21;36.42;99604.09;4959148;28;20471;-77
2023/06/25 05:57:20;;;;;;;5.43;4.93;;;;;;;28.38;36.23;99615.25;4958545;28;20979;-77
2023/06/25 05:59:45;;;;;;;7.83;4.87;;;;;;;28.55;35.46;99612.94;4958578;28;20737;-76
2023/06/25 06:02:11;;;;;;;6.77;5.57;;;;;;;28.70;35.32;99608.06;4961608;28;20225;-77
2023/06/25 06:04:37;;;;;;;4.97;4.33;;;;;;;28.90;34.74;99611.50;4958905;28;20635;-77
2023/06/25 06:07:02;;;;;;;5.87;5.27;;;;;;;28.97;34.52;99610.63;4956127;28;21073;-77
2023/06/25 06:09:28;;;;;;;6.80;4.90;;;;;;;29.10;34.36;99610.59;4947421;28;20206;-76
2023/06/25 06:11:53;;;;;;;4.97;4.50;;;;;;;29.25;34.16;99608.41;4954419;28;20228;-76
2023/06/25 06:14:19;;;;;;;6.07;5.47;;;;;;;29.50;33.80;99604.88;4955172;28;20205;-77
2023/06/25 06:16:44;;;;;;;6.20;5.00;;;;;;;29.89;33.46;99608.28;4952732;28;20212;-76
2023/06/25 06:19:10;;;;;;;5.50;5.00;;;;;;;30.26;33.18;99605.63;4954322;28;20571;-77
2023/06/25 06:21:35;;;;;;;5.57;5.07;;;;;;;30.56;32.53;99605.69;4954133;28;20255;-77
2023/06/25 06:24:00;;;;;;;5.90;5.27;;;;;;;30.75;32.26;99593.72;4955808;28;20317;-77
2023/06/25 06:26:26;;;;;;;6.00;4.40;;;;;;;30.87;32.14;99596.53;4954363;28;20219;-77
2023/06/25 06:28:52;;;;;;;4.40;4.00;;;;;;;31.13;31.89;99592.59;4957888;28;20212;-77
2023/06/25 06:31:18;;;;;;;5.50;4.53;;;;;;;31.29;31.52;99596.50;4957416;28;20715;-77
2023/06/25 06:33:44;;;;;;;7.00;5.37;;;;;;;31.37;31.42;99598.91;4960729;28;20464;-77
2023/06/25 06:36:09;;;;;;;5.13;4.73;;;;;;;31.52;30.71;99591.16;4959510;28;20736;-77
2023/06/25 06:38:35;;;;;;;5.20;4.00;;;;;;;31.84;30.29;99593.53;4960326;28;20688;-77
2023/06/25 06:41:00;;;;;;;5.10;4.60;;;;;;;32.05;30.10;99585.84;4956920;28;20193;-77
2023/06/25 06:43:26;;;;;;;6.60;4.20;;;;;;;32.15;29.73;99594.22;4959089;28;20215;-77
2023/06/25 06:45:51;;;;;;;5.63;4.60;;;;;;;32.23;29.99;99596.56;4958700;28;20702;-77
2023/06/25 06:48:17;;;;;;;6.03;5.43;;;;;;;32.24;29.76;99590.03;4957085;28;20359;-77
2023/06/25 06:50:42;;;;;;;6.23;4.93;;;;;;;32.04;29.77;99593.16;4956984;28;20228;-77
2023/06/25 06:53:07;;;;;;;5.47;4.97;;;;;;;32.03;30.07;99590.69;4958916;28;20215;-77
2023/06/25 06:55:33;;;;;;;4.77;4.30;;;;;;;32.01;29.48;99593.66;4955642;28;20220;-77
2023/06/25 06:57:59;;;;;;;6.93;4.20;;;;;;;32.01;29.16;99582.78;4961014;28;20201;-77
2023/06/25 07:00:24;;;;;;;5.67;3.80;;;;;;;32.00;28.96;99588.44;4957186;28;20209;-78
2023/06/25 07:02:49;;;;;;;5.43;4.70;;;;;;;32.25;28.84;99593.63;4960063;28;20759;-77
2023/06/25 07:05:16;;;;;;;5.20;4.70;;;;;;;32.56;28.40;99593.16;4957758;28;20461;-78
2023/06/25 07:07:42;;;;;;;6.10;5.00;;;;;;;32.65;28.03;99588.19;4958041;28;20298;-78
2023/06/25 07:10:08;;;;;;;5.90;4.43;;;;;;;32.77;27.86;99586.22;4960317;28;20570;-78
2023/06/25 07:12:33;;;;;;;5.70;3.90;;;;;;;32.67;28.11;99591.47;4961762;28;20214;-78
2023/06/25 07:17:40;;;;;;;5.87;4.57;;;;;;;33.26;27.28;99585.75;4998654;23;20347;-76
2023/06/25 07:20:06;;;;;;;4.90;4.50;;;;;;;33.58;26.70;99580.56;4966813;28;20464;-77
2023/06/25 07:22:33;;;;;;;5.17;4.73;;;;;;;33.78;26.80;99590.13;4971803;28;20209;-76
2023/06/25 07:24:59;;;;;;;6.00;5.00;;;;;;;34.00;26.52;99580.09;4961269;28;20449;-77
2023/06/25 07:27:25;;;;;;;4.73;4.33;;;;;;;34.08;26.19;99579.69;4959945;28;20888;-76
2023/06/25 07:29:50;;;;;;;5.50;4.30;;;;;;;34.14;26.40;99588.75;4956324;28;21021;-76
2023/06/25 07:32:15;;;;;;;5.57;4.70;;;;;;;34.09;26.78;99592.22;4956674;28;20213;-76
2023/06/25 07:34:41;;;;;;;6.57;4.97;;;;;;;34.02;26.77;99593.44;4958024;28;20213;-77
2023/06/25 07:37:07;;;;;;;4.93;4.17;;;;;;;34.05;26.85;99582.03;4958196;28;20284;-77
2023/06/25 07:39:33;;;;;;;5.33;4.80;;;;;;;34.10;27.00;99582.13;4954097;28;20929;-76
2023/06/25 07:41:59;;;;;;;5.07;4.57;;;;;;;34.07;27.01;99578.00;4955747;28;21149;-77
2023/06/25 07:44:24;;;;;;;5.23;4.23;;;;;;;34.19;27.02;99583.38;4956936;28;20514;-76
2023/06/25 07:46:50;;;;;;;6.30;5.17;;;;;;;34.35;26.84;99576.16;4959633;28;20668;-77
2023/06/25 07:49:15;;;;;;;4.67;4.27;;;;;;;34.52;26.43;99576.94;4956174;28;20300;-76
2023/06/25 07:51:45;;;;;;;5.90;5.30;;;;;;;34.65;26.28;99570.28;4956608;28;20192;-77
2023/06/25 07:54:11;;;;;;;5.13;4.73;;;;;;;34.61;25.99;99576.50;4957756;28;20206;-77
2023/06/25 07:56:36;;;;;;;6.33;5.73;;;;;;;34.28;26.49;99573.66;4958652;28;20756;-76
2023/06/25 07:59:02;;;;;;;4.20;3.83;;;;;;;34.13;26.95;99573.44;4953713;28;20477;-76
2023/06/25 08:01:29;;;;;;;5.43;4.93;;;;;;;34.03;26.80;99574.13;4954908;28;20680;-76
2023/06/25 08:03:55;;;;;;;5.70;5.20;;;;;;;33.83;27.34;99569.22;4954379;28;20213;-77
2023/06/25 08:06:21;;;;;;;5.15;4.65;;;;;;;33.93;26.99;99579.44;4957539;28;20821;-76
2023/06/25 08:08:47;;;;;;;4.97;4.07;;;;;;;33.92;26.76;99575.91;4954986;28;20197;-76
2023/06/25 08:11:12;;;;;;;4.90;4.40;;;;;;;33.70;26.92;99575.88;4958527;28;20213;-77
2023/06/25 08:13:37;;;;;;;6.70;5.67;;;;;;;33.64;27.09;99578.75;4956715;28;20205;-77
2023/06/25 08:16:03;;;;;;;5.17;4.20;;;;;;;33.55;27.55;99572.91;4956763;28;20220;-77
2023/06/25 08:18:28;;;;;;;4.50;4.10;;;;;;;33.52;27.67;99567.09;4936961;29;20313;-77
2023/06/25 08:20:54;;;;;;;5.60;4.33;;;;;;;33.46;28.01;99563.50;4936666;29;20205;-77
2023/06/25 08:23:19;;;;;;;4.80;4.40;;;;;;;33.37;27.81;99567.69;4937928;29;20638;-77
2023/06/25 08:25:45;;;;;;;3.90;3.50;;;;;;;33.05;27.99;99570.97;4937360;29;20230;-77
2023/06/25 08:28:13;;;;;;;4.63;4.23;;;;;;;32.74;28.66;99564.97;4937460;29;20203;-77
2023/06/25 08:30:38;;;;;;;5.60;5.10;;;;;;;32.59;28.85;99560.06;4936446;29;20416;-76
2023/06/25 08:33:04;;;;;;;5.30;4.80;;;;;;;32.51;29.09;99565.88;4937320;29;20478;-77
2023/06/25 08:35:29;;;;;;;5.20;4.33;;;;;;;32.50;29.16;99566.13;4938454;29;20910;-77
2023/06/25 08:37:54;;;;;;;5.37;4.87;;;;;;;32.58;28.85;99563.84;4937923;29;20254;-77
2023/06/25 08:40:22;;;;;;;7.57;5.97;;;;;;;32.57;29.05;99556.78;4934580;29;20655;-77
2023/06/25 08:42:47;;;;;;;4.80;4.40;;;;;;;32.45;29.33;99552.41;4934906;29;20234;-76
2023/06/25 08:45:12;;;;;;;5.67;4.30;;;;;;;32.26;29.12;99555.31;4937877;29;20469;-77
2023/06/25 08:47:39;;;;;;;4.40;3.73;;;;;;;32.17;29.36;99554.03;4937450;29;20209;-76
2023/06/25 08:50:06;;;;;;;4.60;3.70;;;;;;;32.31;28.58;99552.69;4936328;29;20207;-76
2023/06/25 08:52:33;;;;;;;4.10;3.80;;;;;;;32.47;28.10;99553.84;4934577;29;20474;-77
2023/06/25 08:54:59;;;;;;;3.93;3.57;;;;;;;32.68;27.82;99549.63;4937637;29;20478;-78
2023/06/25 08:57:25;;;;;;;4.40;4.10;;;;;;;32.79;26.92;99543.28;4936633;29;20496;-77
2023/06/25 08:59:50;;;;;;;4.43;4.03;;;;;;;32.80;25.71;99542.22;4934180;29;20560;-77
2023/06/25 09:02:15;;;;;;;3.53;3.03;;;;;;;32.74;25.73;99542.38;4937625;29;20558;-77
2023/06/25 09:04:43;;;;;;;4.30;3.90;;;;;;;32.77;25.79;99541.88;4938032;29;20229;-77
2023/06/25 09:07:12;;;;;;;4.67;4.23;;;;;;;32.83;25.86;99530.84;4935583;29;20193;-77
2023/06/25 09:09:38;;;;;;;4.07;3.47;;;;;;;32.97;25.73;99535.97;4936196;29;20519;-76
2023/06/25 09:12:04;;;;;;;4.90;3.87;;;;;;;32.99;25.33;99531.94;4936450;29;20990;-76
2023/06/25 09:14:31;;;;;;;4.40;4.00;;;;;;;33.02;25.26;99531.47;4938830;29;20478;-76
2023/06/25 09:16:57;;;;;;;4.20;3.80;;;;;;;33.07;25.01;99529.91;4941472;28;21034;-77
2023/06/25 09:19:22;;;;;;;4.40;3.43;;;;;;;33.11;24.90;99525.59;4939012;29;20571;-77
2023/06/25 09:21:48;;;;;;;5.30;4.00;;;;;;;33.13;24.58;99518.84;4938118;29;20312;-76
2023/06/25 09:24:18;;;;;;;5.73;3.73;;;;;;;33.14;24.45;99525.13;4941561;29;20796;-77
2023/06/25 09:26:51;;;;;;;3.57;3.27;;;;;;;33.19;24.33;99522.47;4937627;29;20473;-76
2023/06/25 09:29:18;;;;;;;3.33;2.93;;;;;;;33.18;24.21;99521.66;4941210;29;20463;-77
2023/06/25 09:31:45;;;;;;;4.77;3.87;;;;;;;33.21;23.79;99520.34;4941065;29;20807;-77
2023/06/25 09:34:15;;;;;;;4.60;4.20;;;;;;;33.19;23.92;99517.88;4940216;29;20463;-77
2023/06/25 09:36:41;;;;;;;6.40;5.50;;;;;;;33.19;23.90;99517.03;4940179;29;20449;-77
2023/06/25 09:39:08;;;;;;;3.73;3.30;;;;;;;33.34;23.58;99511.00;4942124;29;20499;-77
2023/06/25 09:41:34;;;;;;;5.30;3.50;;;;;;;33.48;23.66;99504.13;4942388;29;20349;-77
2023/06/25 09:44:03;;;;;;;4.33;3.47;;;;;;;33.69;23.38;99510.72;4942325;29;20465;-77
2023/06/25 09:46:29;;;;;;;4.43;3.70;;;;;;;33.82;23.06;99507.63;4945764;29;21023;-77
2023/06/25 09:48:56;;;;;;;6.50;3.70;;;;;;;34.00;22.84;99506.50;4941885;29;20461;-77
2023/06/25 09:51:28;;;;;;;3.60;3.30;;;;;;;34.21;22.27;99502.13;4934884;28;20457;-77
2023/06/25 09:53:56;;;;;;;3.53;3.23;;;;;;;34.01;22.16;99493.69;4940400;29;20997;-77
2023/06/25 09:56:22;;;;;;;3.97;3.57;;;;;;;33.93;22.62;99494.97;4943577;29;20972;-77
2023/06/25 09:58:48;;;;;;;3.27;2.97;;;;;;;34.07;22.34;99493.53;4938316;29;20479;-77
2023/06/25 10:01:15;;;;;;;6.83;3.73;;;;;;;34.03;22.54;99500.53;4936388;29;20212;-77
2023/06/25 10:03:42;;;;;;;3.70;3.37;;;;;;;34.06;22.31;99505.50;4935965;29;20467;-77
2023/06/25 10:06:08;;;;;;;3.33;3.03;;;;;;;34.14;22.30;99496.88;4935039;29;20464;-77
2023/06/25 10:08:33;;;;;;;3.60;3.20;;;;;;;34.23;22.23;99499.16;4936922;29;20456;-77
2023/06/25 10:11:00;;;;;;;4.17;3.20;;;;;;;34.32;21.91;99492.16;4940139;29;20269;-77
2023/06/25 10:13:26;;;;;;;3.73;3.43;;;;;;;34.39;21.79;99497.41;4938057;29;20214;-77
2023/06/25 10:15:59;;;;;;;4.50;2.97;;;;;;;34.34;21.79;99492.72;4945175;28;20479;-77
2023/06/25 10:18:25;;;;;;;4.43;3.43;;;;;;;34.44;21.65;99486.56;4947012;29;20766;-77
2023/06/25 10:20:55;;;;;;;3.47;3.17;;;;;;;34.64;21.69;99492.22;4947916;29;20552;-77
2023/06/25 10:23:24;;;;;;;4.27;3.57;;;;;;;34.82;21.67;99485.59;4946365;29;20194;-78
2023/06/25 10:25:56;;;;;;;4.87;3.63;;;;;;;34.92;21.33;99487.59;4950044;29;20655;-77
2023/06/25 10:28:29;;;;;;;3.43;2.63;;;;;;;34.96;21.28;99481.31;4926750;29;20465;-77
2023/06/25 10:30:55;;;;;;;4.10;3.60;;;;;;;34.96;21.57;99491.41;4939677;29;20567;-77
2023/06/25 10:33:22;;;;;;;3.63;3.33;;;;;;;34.86;21.35;99475.78;4946933;29;20480;-78
2023/06/25 10:35:54;;;;;;;3.77;3.47;;;;;;;34.85;21.54;99479.59;4949631;29;20217;-77
2023/06/25 10:38:20;;;;;;;4.27;3.90;;;;;;;34.76;21.54;99475.72;4944333;29;20489;-77
2023/06/25 10:40:46;;;;;;;6.20;4.10;;;;;;;34.69;21.71;99480.56;4943095;29;20543;-78
2023/06/25 10:43:19;;;;;;;4.30;3.50;;;;;;;34.71;21.37;99483.84;4945598;29;20627;-78
2023/06/25 10:45:52;;;;;;;5.47;3.60;;;;;;;34.71;20.84;99475.66;4948089;29;20544;-78
2023/06/25 10:48:18;;;;;;;4.00;3.53;;;;;;;34.78;20.91;99478.97;4949915;29;20488;-78
2023/06/25 10:50:44;;;;;;;5.43;3.43;;;;;;;35.00;20.61;99471.53;4951416;29;20991;-78
2023/06/25 10:53:14;;;;;;;3.80;3.50;;;;;;;35.19;20.86;99463.78;4950940;29;20492;-77
2023/06/25 10:55:43;;;;;;;4.03;3.60;;;;;;;35.23;20.75;99461.34;4946267;29;20870;-78
2023/06/25 10:58:09;;;;;;;4.90;3.70;;;;;;;35.30;20.89;99463.84;4947015;29;20898;-77
2023/06/25 11:00:35;;;;;;;5.53;3.60;;;;;;;35.38;20.75;99461.44;4951795;29;20997;-78
2023/06/25 11:03:01;;;;;;;4.17;3.77;;;;;;;35.33;20.30;99455.13;4946883;29;20940;-78
2023/06/25 11:05:43;;;;;;;4.15;3.60;;;;;;;35.09;20.33;99451.97;4952038;29;20452;-78
2023/06/25 11:08:08;;;;;;;4.23;3.83;;;;;;;34.95;20.73;99446.94;4948044;29;20208;-77
2023/06/25 11:10:36;;;;;;;4.73;3.80;;;;;;;34.72;20.67;99453.56;4946277;29;20461;-77
2023/06/25 11:13:02;;;;;;;3.80;3.50;;;;;;;34.53;20.95;99450.38;4942946;29;20321;-78
2023/06/25 11:15:32;;;;;;;6.20;4.03;;;;;;;34.42;21.15;99445.91;4937191;29;20571;-77
2023/06/25 11:17:58;;;;;;;3.70;3.40;;;;;;;34.32;21.24;99443.06;4963893;28;20669;-78
2023/06/25 11:20:25;;;;;;;3.83;3.40;;;;;;;34.16;21.16;99442.09;4965043;28;20472;-78
2023/06/25 11:22:51;;;;;;;4.23;3.60;;;;;;;34.10;21.59;99434.94;4962136;28;20618;-76
2023/06/25 11:25:20;;;;;;;4.67;4.27;;;;;;;34.15;21.48;99435.81;4968769;28;21203;-77
2023/06/25 11:27:46;;;;;;;5.70;4.20;;;;;;;34.21;21.58;99433.97;4965548;28;20448;-77
2023/06/25 11:30:12;;;;;;;3.20;2.90;;;;;;;34.20;21.65;99428.78;4969848;28;20475;-78
2023/06/25 11:32:39;;;;;;;4.67;4.17;;;;;;;34.20;21.61;99436.97;4968098;28;20468;-78